sensor_id;sensor_type;location;lat;lon;timestamp;P1;durP1;ratioP1;P2;durP2;ratioP2
15230;SDS011;32569;51.762;8.564;2023-07-13T00:00:07;4.60;;;2.80;;
15230;SDS011;32569;51.762;8.564;2023-07-13T00:02:35;4.60;;;3.00;;
15230;SDS011;32569;51.762;8.564;2023-07-13T00:05:02;3.37;;;2.87;;
15230;SDS011;32569;51.762;8.564;2023-07-13T00:07:30;2.57;;;2.37;;
15230;SDS011;32569;51.762;8.564;2023-07-13T00:09:57;5.13;;;2.70;;
15230;SDS011;32569;51.762;8.564;2023-07-13T00:12:25;6.10;;;3.00;;
15230;SDS011;32569;51.762;8.564;2023-07-13T00:14:53;3.30;;;2.33;;
15230;SDS011;32569;51.762;8.564;2023-07-13T00:17:21;4.50;;;2.70;;
15230;SDS011;32569;51.762;8.564;2023-07-13T00:19:48;3.80;;;2.97;;
15230;SDS011;32569;51.762;8.564;2023-07-13T00:22:14;3.87;;;2.77;;
15230;SDS011;32569;51.762;8.564;2023-07-13T00:24:44;3.80;;;2.80;;
15230;SDS011;32569;51.762;8.564;2023-07-13T00:27:11;3.17;;;2.60;;
15230;SDS011;32569;51.762;8.564;2023-07-13T00:29:38;4.37;;;2.83;;
15230;SDS011;32569;51.762;8.564;2023-07-13T00:32:06;5.00;;;2.50;;
15230;SDS011;32569;51.762;8.564;2023-07-13T00:34:34;7.90;;;2.83;;
15230;SDS011;32569;51.762;8.564;2023-07-13T00:37:01;3.63;;;2.77;;
15230;SDS011;32569;51.762;8.564;2023-07-13T00:39:28;3.73;;;2.90;;
15230;SDS011;32569;51.762;8.564;2023-07-13T00:41:56;4.23;;;2.67;;
15230;SDS011;32569;51.762;8.564;2023-07-13T00:44:22;4.83;;;2.77;;
15230;SDS011;32569;51.762;8.564;2023-07-13T00:46:49;2.90;;;2.70;;
15230;SDS011;32569;51.762;8.564;2023-07-13T00:49:16;9.13;;;3.37;;
15230;SDS011;32569;51.762;8.564;2023-07-13T00:51:49;3.67;;;2.83;;
15230;SDS011;32569;51.762;8.564;2023-07-13T00:54:18;4.10;;;3.10;;
15230;SDS011;32569;51.762;8.564;2023-07-13T00:56:48;3.37;;;2.70;;
15230;SDS011;32569;51.762;8.564;2023-07-13T00:59:19;4.63;;;3.50;;
15230;SDS011;32569;51.762;8.564;2023-07-13T01:01:47;3.87;;;2.77;;
15230;SDS011;32569;51.762;8.564;2023-07-13T01:04:14;3.07;;;2.60;;
15230;SDS011;32569;51.762;8.564;2023-07-13T01:06:40;3.13;;;2.83;;
15230;SDS011;32569;51.762;8.564;2023-07-13T01:09:09;2.77;;;2.57;;
15230;SDS011;32569;51.762;8.564;2023-07-13T01:11:36;12.33;;;3.13;;
15230;SDS011;32569;51.762;8.564;2023-07-13T01:14:03;3.83;;;2.83;;
15230;SDS011;32569;51.762;8.564;2023-07-13T01:16:32;4.23;;;3.03;;
15230;SDS011;32569;51.762;8.564;2023-07-13T01:19:00;5.17;;;3.57;;
15230;SDS011;32569;51.762;8.564;2023-07-13T01:21:32;3.80;;;3.20;;
15230;SDS011;32569;51.762;8.564;2023-07-13T01:23:59;3.63;;;3.13;;
15230;SDS011;32569;51.762;8.564;2023-07-13T01:26:27;4.17;;;3.77;;
15230;SDS011;32569;51.762;8.564;2023-07-13T01:28:54;5.37;;;3.50;;
15230;SDS011;32569;51.762;8.564;2023-07-13T01:31:22;4.00;;;3.60;;
15230;SDS011;32569;51.762;8.564;2023-07-13T01:33:48;4.67;;;3.37;;
15230;SDS011;32569;51.762;8.564;2023-07-13T01:36:15;5.13;;;3.50;;
15230;SDS011;32569;51.762;8.564;2023-07-13T01:38:43;4.60;;;3.50;;
15230;SDS011;32569;51.762;8.564;2023-07-13T01:41:10;4.93;;;3.73;;
15230;SDS011;32569;51.762;8.564;2023-07-13T01:43:36;4.20;;;3.80;;
15230;SDS011;32569;51.762;8.564;2023-07-13T01:46:03;5.67;;;3.77;;
15230;SDS011;32569;51.762;8.564;2023-07-13T01:48:29;4.63;;;4.13;;
15230;SDS011;32569;51.762;8.564;2023-07-13T01:50:56;5.23;;;4.13;;
15230;SDS011;32569;51.762;8.564;2023-07-13T01:53:23;5.70;;;3.83;;
15230;SDS011;32569;51.762;8.564;2023-07-13T01:55:52;3.90;;;3.57;;
15230;SDS011;32569;51.762;8.564;2023-07-13T01:58:19;4.40;;;3.60;;
15230;SDS011;32569;51.762;8.564;2023-07-13T02:00:47;5.53;;;4.00;;
15230;SDS011;32569;51.762;8.564;2023-07-13T02:03:14;4.27;;;3.87;;
15230;SDS011;32569;51.762;8.564;2023-07-13T02:05:43;4.57;;;4.17;;
15230;SDS011;32569;51.762;8.564;2023-07-13T02:08:09;4.17;;;3.83;;
15230;SDS011;32569;51.762;8.564;2023-07-13T02:10:36;5.37;;;4.50;;
15230;SDS011;32569;51.762;8.564;2023-07-13T02:13:05;5.03;;;4.30;;
15230;SDS011;32569;51.762;8.564;2023-07-13T02:15:32;6.70;;;4.03;;
15230;SDS011;32569;51.762;8.564;2023-07-13T02:17:59;5.20;;;4.70;;
15230;SDS011;32569;51.762;8.564;2023-07-13T02:20:25;5.00;;;4.30;;
15230;SDS011;32569;51.762;8.564;2023-07-13T02:22:52;4.40;;;4.00;;
15230;SDS011;32569;51.762;8.564;2023-07-13T02:25:19;7.00;;;3.80;;
15230;SDS011;32569;51.762;8.564;2023-07-13T02:27:45;6.40;;;4.03;;
15230;SDS011;32569;51.762;8.564;2023-07-13T02:30:13;5.93;;;3.93;;
15230;SDS011;32569;51.762;8.564;2023-07-13T02:32:40;5.10;;;3.37;;
15230;SDS011;32569;51.762;8.564;2023-07-13T02:35:08;5.40;;;3.80;;
15230;SDS011;32569;51.762;8.564;2023-07-13T02:37:35;4.23;;;3.67;;
15230;SDS011;32569;51.762;8.564;2023-07-13T02:40:02;4.77;;;3.50;;
15230;SDS011;32569;51.762;8.564;2023-07-13T02:42:33;4.37;;;3.40;;
15230;SDS011;32569;51.762;8.564;2023-07-13T02:44:59;4.40;;;3.47;;
15230;SDS011;32569;51.762;8.564;2023-07-13T02:47:27;4.10;;;3.53;;
15230;SDS011;32569;51.762;8.564;2023-07-13T02:49:54;3.53;;;2.90;;
15230;SDS011;32569;51.762;8.564;2023-07-13T02:52:21;7.07;;;3.67;;
15230;SDS011;32569;51.762;8.564;2023-07-13T02:54:47;3.20;;;2.90;;
15230;SDS011;32569;51.762;8.564;2023-07-13T02:57:14;4.00;;;3.07;;
15230;SDS011;32569;51.762;8.564;2023-07-13T02:59:41;3.77;;;2.90;;
15230;SDS011;32569;51.762;8.564;2023-07-13T03:02:07;5.53;;;3.60;;
15230;SDS011;32569;51.762;8.564;2023-07-13T03:04:36;5.47;;;3.50;;
15230;SDS011;32569;51.762;8.564;2023-07-13T03:07:03;5.40;;;3.20;;
15230;SDS011;32569;51.762;8.564;2023-07-13T03:09:30;4.27;;;2.90;;
15230;SDS011;32569;51.762;8.564;2023-07-13T03:11:59;3.70;;;2.77;;
15230;SDS011;32569;51.762;8.564;2023-07-13T03:14:25;2.73;;;2.53;;
15230;SDS011;32569;51.762;8.564;2023-07-13T03:16:52;6.87;;;2.70;;
15230;SDS011;32569;51.762;8.564;2023-07-13T03:19:19;3.77;;;2.70;;
15230;SDS011;32569;51.762;8.564;2023-07-13T03:21:48;3.63;;;3.03;;
15230;SDS011;32569;51.762;8.564;2023-07-13T03:24:14;3.17;;;2.53;;
15230;SDS011;32569;51.762;8.564;2023-07-13T03:26:41;3.43;;;2.63;;
15230;SDS011;32569;51.762;8.564;2023-07-13T03:29:08;4.30;;;2.57;;
15230;SDS011;32569;51.762;8.564;2023-07-13T03:31:37;5.77;;;2.70;;
15230;SDS011;32569;51.762;8.564;2023-07-13T03:34:04;5.43;;;3.07;;
15230;SDS011;32569;51.762;8.564;2023-07-13T03:36:31;4.57;;;2.73;;
15230;SDS011;32569;51.762;8.564;2023-07-13T03:39:00;4.80;;;2.77;;
15230;SDS011;32569;51.762;8.564;2023-07-13T03:41:29;4.67;;;3.03;;
15230;SDS011;32569;51.762;8.564;2023-07-13T03:43:56;7.20;;;3.10;;
15230;SDS011;32569;51.762;8.564;2023-07-13T03:46:23;6.27;;;3.40;;
15230;SDS011;32569;51.762;8.564;2023-07-13T03:48:50;4.50;;;3.00;;
15230;SDS011;32569;51.762;8.564;2023-07-13T03:51:17;3.10;;;2.80;;
15230;SDS011;32569;51.762;8.564;2023-07-13T03:53:44;4.97;;;2.93;;
15230;SDS011;32569;51.762;8.564;2023-07-13T03:56:13;5.87;;;2.83;;
15230;SDS011;32569;51.762;8.564;2023-07-13T03:58:40;4.03;;;3.00;;
15230;SDS011;32569;51.762;8.564;2023-07-13T04:01:09;3.17;;;2.80;;
15230;SDS011;32569;51.762;8.564;2023-07-13T04:03:37;3.20;;;2.90;;
15230;SDS011;32569;51.762;8.564;2023-07-13T04:06:05;6.20;;;2.60;;
15230;SDS011;32569;51.762;8.564;2023-07-13T04:08:34;4.60;;;2.50;;
15230;SDS011;32569;51.762;8.564;2023-07-13T04:11:02;6.83;;;2.93;;
15230;SDS011;32569;51.762;8.564;2023-07-13T04:13:31;5.93;;;2.97;;
15230;SDS011;32569;51.762;8.564;2023-07-13T04:15:58;4.73;;;2.97;;
15230;SDS011;32569;51.762;8.564;2023-07-13T04:18:25;6.73;;;2.97;;
15230;SDS011;32569;51.762;8.564;2023-07-13T04:20:51;5.20;;;2.40;;
15230;SDS011;32569;51.762;8.564;2023-07-13T04:23:18;5.47;;;3.17;;
15230;SDS011;32569;51.762;8.564;2023-07-13T04:25:45;5.53;;;2.60;;
15230;SDS011;32569;51.762;8.564;2023-07-13T04:28:14;7.50;;;2.80;;
15230;SDS011;32569;51.762;8.564;2023-07-13T04:30:42;9.83;;;2.93;;
15230;SDS011;32569;51.762;8.564;2023-07-13T04:33:08;4.13;;;2.20;;
15230;SDS011;32569;51.762;8.564;2023-07-13T04:35:35;3.93;;;2.27;;
15230;SDS011;32569;51.762;8.564;2023-07-13T04:38:02;5.40;;;2.57;;
15230;SDS011;32569;51.762;8.564;2023-07-13T04:40:29;4.57;;;2.33;;
15230;SDS011;32569;51.762;8.564;2023-07-13T04:42:56;5.17;;;2.67;;
15230;SDS011;32569;51.762;8.564;2023-07-13T04:45:24;5.53;;;2.33;;
15230;SDS011;32569;51.762;8.564;2023-07-13T04:47:52;5.80;;;2.43;;
15230;SDS011;32569;51.762;8.564;2023-07-13T04:50:18;7.50;;;2.20;;
15230;SDS011;32569;51.762;8.564;2023-07-13T04:52:48;3.50;;;2.00;;
15230;SDS011;32569;51.762;8.564;2023-07-13T04:55:15;4.33;;;2.33;;
15230;SDS011;32569;51.762;8.564;2023-07-13T04:57:42;6.20;;;2.23;;
15230;SDS011;32569;51.762;8.564;2023-07-13T05:00:09;4.87;;;2.47;;
15230;SDS011;32569;51.762;8.564;2023-07-13T05:02:37;3.53;;;2.10;;
15230;SDS011;32569;51.762;8.564;2023-07-13T05:05:06;3.90;;;1.77;;
15230;SDS011;32569;51.762;8.564;2023-07-13T05:07:33;2.80;;;1.73;;
15230;SDS011;32569;51.762;8.564;2023-07-13T05:10:00;5.20;;;1.93;;
15230;SDS011;32569;51.762;8.564;2023-07-13T05:12:28;3.33;;;1.83;;
15230;SDS011;32569;51.762;8.564;2023-07-13T05:14:54;3.83;;;2.10;;
15230;SDS011;32569;51.762;8.564;2023-07-13T05:17:21;3.63;;;2.17;;
15230;SDS011;32569;51.762;8.564;2023-07-13T05:19:48;4.90;;;1.93;;
15230;SDS011;32569;51.762;8.564;2023-07-13T05:22:16;5.13;;;2.47;;
15230;SDS011;32569;51.762;8.564;2023-07-13T05:24:43;4.03;;;2.40;;
15230;SDS011;32569;51.762;8.564;2023-07-13T05:27:09;1.57;;;1.47;;
15230;SDS011;32569;51.762;8.564;2023-07-13T05:29:36;4.23;;;2.10;;
15230;SDS011;32569;51.762;8.564;2023-07-13T05:32:03;5.07;;;2.10;;
15230;SDS011;32569;51.762;8.564;2023-07-13T05:34:30;3.90;;;1.90;;
15230;SDS011;32569;51.762;8.564;2023-07-13T05:36:57;6.70;;;1.87;;
15230;SDS011;32569;51.762;8.564;2023-07-13T05:39:25;4.17;;;1.90;;
15230;SDS011;32569;51.762;8.564;2023-07-13T05:41:52;2.83;;;1.80;;
15230;SDS011;32569;51.762;8.564;2023-07-13T05:44:19;5.87;;;1.90;;
15230;SDS011;32569;51.762;8.564;2023-07-13T05:46:46;3.67;;;1.90;;
15230;SDS011;32569;51.762;8.564;2023-07-13T05:49:12;3.10;;;1.90;;
15230;SDS011;32569;51.762;8.564;2023-07-13T05:51:39;4.13;;;1.77;;
15230;SDS011;32569;51.762;8.564;2023-07-13T05:54:06;5.30;;;1.60;;
15230;SDS011;32569;51.762;8.564;2023-07-13T05:56:34;6.23;;;1.90;;
15230;SDS011;32569;51.762;8.564;2023-07-13T05:59:00;3.63;;;1.63;;
15230;SDS011;32569;51.762;8.564;2023-07-13T06:01:27;8.40;;;2.30;;
15230;SDS011;32569;51.762;8.564;2023-07-13T06:03:56;4.93;;;1.87;;
15230;SDS011;32569;51.762;8.564;2023-07-13T06:06:22;4.33;;;2.13;;
15230;SDS011;32569;51.762;8.564;2023-07-13T06:08:49;2.47;;;1.60;;
15230;SDS011;32569;51.762;8.564;2023-07-13T06:11:17;3.50;;;1.80;;
15230;SDS011;32569;51.762;8.564;2023-07-13T06:13:46;3.27;;;1.90;;
15230;SDS011;32569;51.762;8.564;2023-07-13T06:16:13;5.33;;;2.30;;
15230;SDS011;32569;51.762;8.564;2023-07-13T06:18:41;7.17;;;2.30;;
15230;SDS011;32569;51.762;8.564;2023-07-13T06:21:08;3.73;;;1.80;;
15230;SDS011;32569;51.762;8.564;2023-07-13T06:23:36;4.10;;;1.47;;
15230;SDS011;32569;51.762;8.564;2023-07-13T06:26:03;3.07;;;1.70;;
15230;SDS011;32569;51.762;8.564;2023-07-13T06:28:30;4.83;;;2.00;;
15230;SDS011;32569;51.762;8.564;2023-07-13T06:30:58;5.50;;;1.83;;
15230;SDS011;32569;51.762;8.564;2023-07-13T06:33:25;4.17;;;1.60;;
15230;SDS011;32569;51.762;8.564;2023-07-13T06:35:53;2.87;;;1.70;;
15230;SDS011;32569;51.762;8.564;2023-07-13T06:38:20;4.63;;;1.80;;
15230;SDS011;32569;51.762;8.564;2023-07-13T06:40:47;6.23;;;2.50;;
15230;SDS011;32569;51.762;8.564;2023-07-13T06:43:14;5.20;;;1.90;;
15230;SDS011;32569;51.762;8.564;2023-07-13T06:45:41;4.07;;;1.90;;
15230;SDS011;32569;51.762;8.564;2023-07-13T06:48:12;5.63;;;2.13;;
15230;SDS011;32569;51.762;8.564;2023-07-13T06:50:38;4.73;;;2.07;;
15230;SDS011;32569;51.762;8.564;2023-07-13T06:53:05;4.17;;;2.37;;
15230;SDS011;32569;51.762;8.564;2023-07-13T06:55:32;5.00;;;2.27;;
15230;SDS011;32569;51.762;8.564;2023-07-13T06:57:58;4.20;;;2.00;;
15230;SDS011;32569;51.762;8.564;2023-07-13T07:00:25;3.90;;;1.90;;
15230;SDS011;32569;51.762;8.564;2023-07-13T07:02:52;4.07;;;2.10;;
15230;SDS011;32569;51.762;8.564;2023-07-13T07:05:20;4.60;;;2.03;;
15230;SDS011;32569;51.762;8.564;2023-07-13T07:07:47;6.27;;;2.90;;
15230;SDS011;32569;51.762;8.564;2023-07-13T07:10:13;5.37;;;2.63;;
15230;SDS011;32569;51.762;8.564;2023-07-13T07:12:40;4.73;;;2.00;;
15230;SDS011;32569;51.762;8.564;2023-07-13T07:15:07;5.10;;;1.97;;
15230;SDS011;32569;51.762;8.564;2023-07-13T07:17:34;4.37;;;2.33;;
15230;SDS011;32569;51.762;8.564;2023-07-13T07:20:01;6.63;;;2.27;;
15230;SDS011;32569;51.762;8.564;2023-07-13T07:22:30;4.27;;;2.00;;
15230;SDS011;32569;51.762;8.564;2023-07-13T07:24:56;5.37;;;2.27;;
15230;SDS011;32569;51.762;8.564;2023-07-13T07:27:24;6.57;;;2.20;;
15230;SDS011;32569;51.762;8.564;2023-07-13T07:29:51;5.50;;;2.40;;
15230;SDS011;32569;51.762;8.564;2023-07-13T07:32:17;4.63;;;2.37;;
15230;SDS011;32569;51.762;8.564;2023-07-13T07:34:44;4.47;;;2.13;;
15230;SDS011;32569;51.762;8.564;2023-07-13T07:37:11;7.23;;;2.50;;
15230;SDS011;32569;51.762;8.564;2023-07-13T07:39:41;3.23;;;2.40;;
15230;SDS011;32569;51.762;8.564;2023-07-13T07:42:08;6.47;;;2.40;;
15230;SDS011;32569;51.762;8.564;2023-07-13T07:44:35;5.93;;;2.60;;
15230;SDS011;32569;51.762;8.564;2023-07-13T07:47:02;5.83;;;2.60;;
15230;SDS011;32569;51.762;8.564;2023-07-13T07:49:29;4.67;;;2.07;;
15230;SDS011;32569;51.762;8.564;2023-07-13T07:51:56;5.10;;;2.57;;
15230;SDS011;32569;51.762;8.564;2023-07-13T07:54:22;8.00;;;2.43;;
15230;SDS011;32569;51.762;8.564;2023-07-13T07:56:50;5.57;;;2.73;;
15230;SDS011;32569;51.762;8.564;2023-07-13T07:59:17;4.33;;;2.20;;
15230;SDS011;32569;51.762;8.564;2023-07-13T08:01:44;6.17;;;2.77;;
15230;SDS011;32569;51.762;8.564;2023-07-13T08:04:13;4.43;;;2.20;;
15230;SDS011;32569;51.762;8.564;2023-07-13T08:06:39;7.10;;;2.57;;
15230;SDS011;32569;51.762;8.564;2023-07-13T08:09:06;6.47;;;2.43;;
15230;SDS011;32569;51.762;8.564;2023-07-13T08:11:33;5.93;;;2.43;;
15230;SDS011;32569;51.762;8.564;2023-07-13T08:14:01;5.90;;;2.83;;
15230;SDS011;32569;51.762;8.564;2023-07-13T08:16:28;5.97;;;2.63;;
15230;SDS011;32569;51.762;8.564;2023-07-13T08:18:55;8.10;;;3.07;;
15230;SDS011;32569;51.762;8.564;2023-07-13T08:21:21;4.70;;;2.20;;
15230;SDS011;32569;51.762;8.564;2023-07-13T08:23:49;4.97;;;2.27;;
15230;SDS011;32569;51.762;8.564;2023-07-13T08:26:15;5.23;;;2.53;;
15230;SDS011;32569;51.762;8.564;2023-07-13T08:28:42;5.97;;;2.47;;
15230;SDS011;32569;51.762;8.564;2023-07-13T08:31:10;6.17;;;2.37;;
15230;SDS011;32569;51.762;8.564;2023-07-13T08:33:37;4.83;;;3.00;;
15230;SDS011;32569;51.762;8.564;2023-07-13T08:36:05;7.13;;;2.77;;
15230;SDS011;32569;51.762;8.564;2023-07-13T08:38:33;7.13;;;2.60;;
15230;SDS011;32569;51.762;8.564;2023-07-13T08:41:00;4.47;;;2.23;;
15230;SDS011;32569;51.762;8.564;2023-07-13T08:43:37;5.27;;;2.73;;
15230;SDS011;32569;51.762;8.564;2023-07-13T08:46:05;5.50;;;2.57;;
15230;SDS011;32569;51.762;8.564;2023-07-13T08:48:39;7.13;;;2.73;;
15230;SDS011;32569;51.762;8.564;2023-07-13T08:51:12;5.97;;;2.73;;
15230;SDS011;32569;51.762;8.564;2023-07-13T08:54:00;4.07;;;2.80;;
15230;SDS011;32569;51.762;8.564;2023-07-13T08:56:29;4.97;;;2.47;;
15230;SDS011;32569;51.762;8.564;2023-07-13T08:58:57;6.77;;;2.60;;
15230;SDS011;32569;51.762;8.564;2023-07-13T09:01:30;4.27;;;2.43;;
15230;SDS011;32569;51.762;8.564;2023-07-13T09:04:07;4.80;;;2.37;;
15230;SDS011;32569;51.762;8.564;2023-07-13T09:06:40;4.20;;;2.53;;
15230;SDS011;32569;51.762;8.564;2023-07-13T09:09:17;4.93;;;2.70;;
15230;SDS011;32569;51.762;8.564;2023-07-13T09:11:50;4.50;;;2.50;;
15230;SDS011;32569;51.762;8.564;2023-07-13T09:14:33;4.33;;;2.97;;
15230;SDS011;32569;51.762;8.564;2023-07-13T09:17:17;8.13;;;2.80;;
15230;SDS011;32569;51.762;8.564;2023-07-13T09:19:48;3.97;;;2.13;;
15230;SDS011;32569;51.762;8.564;2023-07-13T09:22:20;3.10;;;2.17;;
15230;SDS011;32569;51.762;8.564;2023-07-13T09:24:50;5.20;;;2.00;;
15230;SDS011;32569;51.762;8.564;2023-07-13T09:27:23;5.93;;;2.30;;
15230;SDS011;32569;51.762;8.564;2023-07-13T09:29:57;4.60;;;2.60;;
15230;SDS011;32569;51.762;8.564;2023-07-13T09:32:35;4.47;;;2.17;;
15230;SDS011;32569;51.762;8.564;2023-07-13T09:35:05;5.37;;;2.73;;
15230;SDS011;32569;51.762;8.564;2023-07-13T09:37:36;7.40;;;2.50;;
15230;SDS011;32569;51.762;8.564;2023-07-13T09:40:08;5.83;;;2.63;;
15230;SDS011;32569;51.762;8.564;2023-07-13T09:42:42;5.70;;;2.13;;
15230;SDS011;32569;51.762;8.564;2023-07-13T09:45:08;5.60;;;3.00;;
15230;SDS011;32569;51.762;8.564;2023-07-13T09:47:39;4.87;;;2.37;;
15230;SDS011;32569;51.762;8.564;2023-07-13T09:50:08;7.77;;;2.30;;
15230;SDS011;32569;51.762;8.564;2023-07-13T09:52:41;6.00;;;2.23;;
15230;SDS011;32569;51.762;8.564;2023-07-13T09:55:24;4.33;;;2.20;;
15230;SDS011;32569;51.762;8.564;2023-07-13T09:57:54;2.40;;;2.20;;
15230;SDS011;32569;51.762;8.564;2023-07-13T10:00:22;3.97;;;1.93;;
15230;SDS011;32569;51.762;8.564;2023-07-13T10:02:59;3.47;;;1.83;;
15230;SDS011;32569;51.762;8.564;2023-07-13T10:05:40;9.40;;;2.33;;
15230;SDS011;32569;51.762;8.564;2023-07-13T10:08:18;3.23;;;2.13;;
15230;SDS011;32569;51.762;8.564;2023-07-13T10:10:52;3.67;;;2.03;;
15230;SDS011;32569;51.762;8.564;2023-07-13T10:13:26;5.90;;;2.13;;
15230;SDS011;32569;51.762;8.564;2023-07-13T10:15:56;4.57;;;2.07;;
15230;SDS011;32569;51.762;8.564;2023-07-13T10:18:26;6.50;;;2.53;;
15230;SDS011;32569;51.762;8.564;2023-07-13T10:20:57;6.90;;;2.27;;
15230;SDS011;32569;51.762;8.564;2023-07-13T10:23:35;6.40;;;2.57;;
15230;SDS011;32569;51.762;8.564;2023-07-13T10:26:02;3.87;;;2.30;;
15230;SDS011;32569;51.762;8.564;2023-07-13T10:28:31;2.97;;;2.10;;
15230;SDS011;32569;51.762;8.564;2023-07-13T10:31:02;5.10;;;2.30;;
15230;SDS011;32569;51.762;8.564;2023-07-13T10:33:36;6.00;;;2.40;;
15230;SDS011;32569;51.762;8.564;2023-07-13T10:36:05;3.80;;;2.17;;
15230;SDS011;32569;51.762;8.564;2023-07-13T10:38:41;5.00;;;2.23;;
15230;SDS011;32569;51.762;8.564;2023-07-13T10:41:10;5.40;;;2.10;;
15230;SDS011;32569;51.762;8.564;2023-07-13T10:43:41;3.77;;;2.10;;
15230;SDS011;32569;51.762;8.564;2023-07-13T10:46:11;6.60;;;2.70;;
15230;SDS011;32569;51.762;8.564;2023-07-13T10:48:42;3.73;;;2.10;;
15230;SDS011;32569;51.762;8.564;2023-07-13T10:51:12;5.37;;;2.53;;
15230;SDS011;32569;51.762;8.564;2023-07-13T10:53:41;5.57;;;2.83;;
15230;SDS011;32569;51.762;8.564;2023-07-13T10:56:18;7.20;;;3.27;;
15230;SDS011;32569;51.762;8.564;2023-07-13T10:59:00;7.07;;;3.03;;
15230;SDS011;32569;51.762;8.564;2023-07-13T11:01:39;5.20;;;2.20;;
15230;SDS011;32569;51.762;8.564;2023-07-13T11:04:11;3.53;;;2.20;;
15230;SDS011;32569;51.762;8.564;2023-07-13T11:06:47;6.30;;;2.70;;
15230;SDS011;32569;51.762;8.564;2023-07-13T11:09:35;4.37;;;2.20;;
15230;SDS011;32569;51.762;8.564;2023-07-13T11:12:09;2.13;;;1.83;;
15230;SDS011;32569;51.762;8.564;2023-07-13T11:15:03;2.83;;;1.87;;
15230;SDS011;32569;51.762;8.564;2023-07-13T11:17:34;5.47;;;2.20;;
15230;SDS011;32569;51.762;8.564;2023-07-13T11:20:34;2.33;;;1.90;;
15230;SDS011;32569;51.762;8.564;2023-07-13T11:23:15;4.83;;;2.30;;
15230;SDS011;32569;51.762;8.564;2023-07-13T11:25:53;3.23;;;2.10;;
15230;SDS011;32569;51.762;8.564;2023-07-13T11:28:24;3.60;;;1.70;;
15230;SDS011;32569;51.762;8.564;2023-07-13T11:31:00;4.63;;;2.47;;
15230;SDS011;32569;51.762;8.564;2023-07-13T11:33:31;2.93;;;1.80;;
15230;SDS011;32569;51.762;8.564;2023-07-13T11:36:18;3.63;;;1.83;;
15230;SDS011;32569;51.762;8.564;2023-07-13T11:38:50;4.40;;;2.10;;
15230;SDS011;32569;51.762;8.564;2023-07-13T11:41:25;4.73;;;2.30;;
15230;SDS011;32569;51.762;8.564;2023-07-13T11:43:54;3.77;;;2.00;;
15230;SDS011;32569;51.762;8.564;2023-07-13T11:46:23;2.00;;;1.70;;
15230;SDS011;32569;51.762;8.564;2023-07-13T11:48:51;3.00;;;2.10;;
15230;SDS011;32569;51.762;8.564;2023-07-13T11:51:20;2.70;;;1.67;;
15230;SDS011;32569;51.762;8.564;2023-07-13T11:53:50;5.43;;;2.07;;
15230;SDS011;32569;51.762;8.564;2023-07-13T11:56:18;4.40;;;2.30;;
15230;SDS011;32569;51.762;8.564;2023-07-13T11:58:47;5.03;;;2.00;;
15230;SDS011;32569;51.762;8.564;2023-07-13T12:01:16;4.17;;;1.80;;
15230;SDS011;32569;51.762;8.564;2023-07-13T12:03:47;2.80;;;2.10;;
15230;SDS011;32569;51.762;8.564;2023-07-13T12:06:23;3.40;;;1.90;;
15230;SDS011;32569;51.762;8.564;2023-07-13T12:08:55;2.53;;;2.03;;
15230;SDS011;32569;51.762;8.564;2023-07-13T12:11:24;3.63;;;1.80;;
15230;SDS011;32569;51.762;8.564;2023-07-13T12:13:51;3.73;;;1.77;;
15230;SDS011;32569;51.762;8.564;2023-07-13T12:16:23;3.10;;;1.90;;
15230;SDS011;32569;51.762;8.564;2023-07-13T12:18:53;4.33;;;1.90;;
15230;SDS011;32569;51.762;8.564;2023-07-13T12:21:24;5.10;;;2.13;;
15230;SDS011;32569;51.762;8.564;2023-07-13T12:23:56;2.93;;;1.90;;
15230;SDS011;32569;51.762;8.564;2023-07-13T12:26:23;2.77;;;2.00;;
15230;SDS011;32569;51.762;8.564;2023-07-13T12:28:51;5.07;;;2.23;;
15230;SDS011;32569;51.762;8.564;2023-07-13T12:34:08;4.47;;;2.07;;
15230;SDS011;32569;51.762;8.564;2023-07-13T12:36:45;3.57;;;1.83;;
15230;SDS011;32569;51.762;8.564;2023-07-13T12:39:15;4.53;;;1.97;;
15230;SDS011;32569;51.762;8.564;2023-07-13T12:41:45;3.87;;;2.00;;
15230;SDS011;32569;51.762;8.564;2023-07-13T12:44:12;3.83;;;2.07;;
15230;SDS011;32569;51.762;8.564;2023-07-13T12:46:51;4.17;;;2.30;;
15230;SDS011;32569;51.762;8.564;2023-07-13T12:49:22;3.60;;;2.43;;
15230;SDS011;32569;51.762;8.564;2023-07-13T12:51:59;4.47;;;2.40;;
15230;SDS011;32569;51.762;8.564;2023-07-13T12:54:28;5.53;;;2.43;;
15230;SDS011;32569;51.762;8.564;2023-07-13T12:56:56;5.40;;;2.00;;
15230;SDS011;32569;51.762;8.564;2023-07-13T12:59:29;5.53;;;2.80;;
15230;SDS011;32569;51.762;8.564;2023-07-13T13:01:58;3.13;;;2.60;;
15230;SDS011;32569;51.762;8.564;2023-07-13T13:04:25;4.23;;;2.33;;
15230;SDS011;32569;51.762;8.564;2023-07-13T13:07:01;3.50;;;2.43;;
15230;SDS011;32569;51.762;8.564;2023-07-13T13:09:29;6.87;;;2.80;;
15230;SDS011;32569;51.762;8.564;2023-07-13T13:11:56;5.70;;;2.43;;
15230;SDS011;32569;51.762;8.564;2023-07-13T13:14:24;4.60;;;2.60;;
15230;SDS011;32569;51.762;8.564;2023-07-13T13:16:51;5.33;;;3.00;;
15230;SDS011;32569;51.762;8.564;2023-07-13T13:19:20;4.80;;;2.57;;
15230;SDS011;32569;51.762;8.564;2023-07-13T13:21:48;3.20;;;1.87;;
15230;SDS011;32569;51.762;8.564;2023-07-13T13:24:19;3.60;;;2.30;;
15230;SDS011;32569;51.762;8.564;2023-07-13T13:26:47;3.93;;;2.33;;
15230;SDS011;32569;51.762;8.564;2023-07-13T13:29:17;2.83;;;2.47;;
15230;SDS011;32569;51.762;8.564;2023-07-13T13:31:45;2.50;;;2.30;;
15230;SDS011;32569;51.762;8.564;2023-07-13T13:34:13;4.17;;;2.20;;
15230;SDS011;32569;51.762;8.564;2023-07-13T13:36:42;4.33;;;2.00;;
15230;SDS011;32569;51.762;8.564;2023-07-13T13:39:16;3.67;;;2.20;;
15230;SDS011;32569;51.762;8.564;2023-07-13T13:41:48;2.73;;;2.30;;
15230;SDS011;32569;51.762;8.564;2023-07-13T13:44:15;4.73;;;1.90;;
15230;SDS011;32569;51.762;8.564;2023-07-13T13:46:43;2.93;;;2.00;;
15230;SDS011;32569;51.762;8.564;2023-07-13T13:49:12;3.90;;;2.17;;
15230;SDS011;32569;51.762;8.564;2023-07-13T13:51:41;3.37;;;1.97;;
15230;SDS011;32569;51.762;8.564;2023-07-13T13:54:09;3.00;;;1.83;;
15230;SDS011;32569;51.762;8.564;2023-07-13T13:56:40;4.23;;;1.90;;
15230;SDS011;32569;51.762;8.564;2023-07-13T13:59:07;5.50;;;2.47;;
15230;SDS011;32569;51.762;8.564;2023-07-13T14:01:34;3.60;;;2.07;;
15230;SDS011;32569;51.762;8.564;2023-07-13T14:04:02;2.40;;;1.90;;
15230;SDS011;32569;51.762;8.564;2023-07-13T14:06:30;2.10;;;1.90;;
15230;SDS011;32569;51.762;8.564;2023-07-13T14:08:57;3.87;;;2.30;;
15230;SDS011;32569;51.762;8.564;2023-07-13T14:11:24;3.93;;;2.17;;
15230;SDS011;32569;51.762;8.564;2023-07-13T14:13:53;2.83;;;1.90;;
15230;SDS011;32569;51.762;8.564;2023-07-13T14:16:25;2.97;;;2.00;;
15230;SDS011;32569;51.762;8.564;2023-07-13T14:18:58;6.40;;;1.90;;
15230;SDS011;32569;51.762;8.564;2023-07-13T14:21:25;4.63;;;1.90;;
15230;SDS011;32569;51.762;8.564;2023-07-13T14:23:55;4.63;;;2.10;;
15230;SDS011;32569;51.762;8.564;2023-07-13T14:26:22;3.23;;;2.07;;
15230;SDS011;32569;51.762;8.564;2023-07-13T14:28:53;2.30;;;1.90;;
15230;SDS011;32569;51.762;8.564;2023-07-13T14:31:26;3.50;;;2.70;;
15230;SDS011;32569;51.762;8.564;2023-07-13T14:33:54;4.17;;;2.33;;
15230;SDS011;32569;51.762;8.564;2023-07-13T14:36:23;4.10;;;2.07;;
15230;SDS011;32569;51.762;8.564;2023-07-13T14:38:54;3.83;;;2.00;;
15230;SDS011;32569;51.762;8.564;2023-07-13T14:41:21;3.00;;;2.20;;
15230;SDS011;32569;51.762;8.564;2023-07-13T14:43:48;6.90;;;2.90;;
15230;SDS011;32569;51.762;8.564;2023-07-13T14:46:24;5.23;;;3.43;;
15230;SDS011;32569;51.762;8.564;2023-07-13T14:48:57;3.50;;;2.47;;
15230;SDS011;32569;51.762;8.564;2023-07-13T14:51:27;3.67;;;3.10;;
15230;SDS011;32569;51.762;8.564;2023-07-13T14:53:54;3.33;;;2.70;;
15230;SDS011;32569;51.762;8.564;2023-07-13T14:56:21;3.47;;;2.83;;
15230;SDS011;32569;51.762;8.564;2023-07-13T14:58:48;3.43;;;2.83;;
15230;SDS011;32569;51.762;8.564;2023-07-13T15:01:15;4.27;;;2.90;;